My webcam more information My webcam


Visit other weathersites:

Galway City Weather

Moycullen Weather

Waterford City Weather

Charlestown Weather

Clevedon Weather



Nearby METAR Reports

   
EBAW - Antwerp
Updated: 22-09-2017 19:20
Clear  
Clear  
   Wind: North 9.3 km/h
Wind: North 9.3 km/h
Temperature: 15°C
Dew Point: 11°C
Humidity: 77%
Barometer: 1023 hPa
Visibility: More than 10 km
Cloud details: Clear
EBAW 221820Z 35005KT CAVOK 15/11 Q1023 NOSIG
EBLG - Li├Ęge
Updated: 22-09-2017 19:20
Few Clouds  
Few Clouds  
   Wind: WSW 5.6 km/h
Wind: WSW 5.6 km/h
Temperature: 14°C
Dew Point: 12°C
Humidity: 88%
Barometer: 1022 hPa
Clouds: Few Clouds
Visibility: More than 10 km
Cloud details: Few Clouds 609.6 m
EBLG 221820Z 24003KT 9999 FEW020 14/12 Q1022 NOSIG
EBCV - Mons/Bergen
Updated: 22-09-2017 19:25
Mostly Cloudy  
Mostly Cloudy  
   Wind: North 7.4 km/h
Wind: North 7.4 km/h
Temperature: 14°C
Dew Point: 11°C
Humidity: 82%
Barometer: 1023 hPa
Clouds: Mostly Cloudy
Visibility: More than 10 km
Cloud details: Mostly Cloudy 1310.6 m
EBCV 221825Z AUTO 36004KT 9999 BKN043/// 14/11 Q1023 BLU
EHBK - Maastricht
Updated: 22-09-2017 19:25
Few Clouds  
Few Clouds  
   Wind: SSW 7.4 km/h
Wind: SSW 7.4 km/h
Temperature: 14°C
Dew Point: 14°C
Humidity: 100%
Barometer: 1022 hPa
Clouds: Few Clouds
Visibility: 6 km
Cloud details: Few Clouds 457.2 m
EHBK 221825Z AUTO 21004KT 6000 FEW015CB 14/14 Q1022 NOSIG
ELLX - Luxemburg
Updated: 22-09-2017 19:20
Clear  
Clear  
   Wind: NW 13 km/h
Wind: NW 13 km/h
Temperature: 15°C
Dew Point: 10°C
Humidity: 72%
Barometer: 1022 hPa
Visibility: More than 10 km
Cloud details: Clear
ELLX 221820Z 32007KT CAVOK 15/10 Q1022 NOSIG
EBOS - Oostende
Updated: 22-09-2017 19:20
Few Clouds  
Few Clouds  
   Wind: WNW 1.9 km/h
Wind: WNW 1.9 km/h
Temperature: 13°C
Dew Point: 10°C
Humidity: 82%
Barometer: 1023 hPa
Clouds: Few Clouds
Visibility: More than 10 km
Cloud details: Few Clouds 731.5 m
EBOS 221820Z 30001KT 9999 FEW024 13/10 Q1023 NOSIG

Script developed by  Saratoga-weather.org Adapted for the template by  Weerstation Leuven

You find our weather info also at:

UK Metoffice

Weather Underground

Equipment we use:

Weather-station
Davis Vantage Vue

Weather-program
Weather Display

Weather-server
Dell 3050 Micro Desktop

Provider
RS Hosting

Davis Vantage Vue

Weather Display

Dell 3050 Micro Desktop

RS Hosting